Historyczne dane pomiarowe

Dodano dane terminowe – wersja testowa.

Dane z okresu 1951-2019

Wersja bazy: 1.34 [2019-03-16, lista zmian], aktualizacja planowana na 2019-04-15

Dane meteo z obszaru Polski uzyskane na podstawie danych udostępnionych przez Instytut Meteorologii i Gospodarki Wodnej – Państwowy Instytut Badawczy.

 

Wybierz Datę:    

       

TemperaturaWilgotnośćZachmurzenieWiatrCiśnienieWidzialnośćZjawiska
 Data    tng td wb rh cc ccl cl cm ch dir g1 g2 mslp ppp      
1994-06-19 00:00:00 13.2--- 12.7 12.997wxwxwxwx4wx--1010.3 995.4 4.0---wxw1
1994-06-19 01:00:00 13.1--- 12.4 12.796wxwxwxwx2wx--1009.9 995.0----wx
1994-06-19 02:00:00 13.2--- 12.5 12.896wxwxwx1wx--1009.9 995.0----wx
1994-06-19 03:00:00 13.0--- 12.3 12.696wxwxwx2wx--1009.9 995.0----wx
1994-06-19 04:00:00 13.8--- 13.0 13.395wxwxwx1wx--1009.5 994.7----wx
1994-06-19 05:00:00 14.5--- 12.8 13.590wxwxwx1wx--1009.6 994.8----wx
1994-06-19 06:00:00 14.8--- 12.8 13.688wxwxwx1wx--1009.5 994.7 0.0---wx
1994-06-19 07:00:00 16.7--- 13.5 14.882wxwxwxwx2wx--1009.5 994.8----wx
1994-06-19 08:00:00 20.2--- 14.4 16.669wxwxwxwx5wx--1008.9 994.4----wx
1994-06-19 09:00:00 21.0--- 11.2 15.253wxwxwxwx5wx--1008.9 994.4----wx
1994-06-19 10:00:00 22.0--- 9.7 14.946wxwxwxwxwx6wx11-1008.9 994.5----wx
1994-06-19 11:00:00 22.7--- 10.4 15.546wxwxwxwxwx5wx10-1009.0 994.6----wx
1994-06-19 12:00:00 24.0--- 9.8 15.741wxwxwxwxwx6wx11-1008.7 994.4 0.0---wx
1994-06-19 13:00:00 24.6--- 8.1 15.235wxwxwxwxwx7wx13-1008.3 994.0----wx
1994-06-19 14:00:00 25.1--- 8.8 15.736wxwxwxwx6wx11-1008.3 994.0----wx
1994-06-19 15:00:00 24.9--- 7.3 15.032wxwxwxwxwx7wx15-1008.3 994.0----wx
1994-06-19 16:00:00 24.8--- 8.9 15.636wxwxwxwxwx5wx10-1008.3 994.0----wx
1994-06-19 17:00:00 24.4--- 10.1 16.041wxwxwx4wx--1008.2 993.9----wx
1994-06-19 18:00:00 23.4--- 10.9 16.045wxwxwxwx1wx--1008.6 994.3 0.0---wx
1994-06-19 19:00:00 19.8--- 12.3 15.362wxwxwxwx2wx--1009.2 994.7----wx
1994-06-19 20:00:00 18.1--- 12.2 14.668wxwxwxwx2wx--1009.7 995.1----wx
1994-06-19 21:00:00 17.6--- 11.4 14.067wxwxwxwxwx2wx--1009.8 995.2----wx
1994-06-19 22:00:00 15.9--- 11.4 13.375wxwxwxwx1wx--1010.4 995.7----wx
1994-06-19 23:00:00 14.5--- 11.2 12.680wxwxwx1wx--1010.8 996.0----wx

 

Źródłem pochodzenia danych jest Instytut Meteorologii i Gospodarki Wodnej – Państwowy Instytut Badawczy. Dane Instytutu Meteorologii i Gospodarki Wodnej – Państwowego Instytutu Badawczego zostały przetworzone.

Dane źródłowe można odnaleźć na stronie https://dane.imgw.pl